Terminal Aerodrome Forecast
Issued by NWS Pocatello, ID

Home | Current Version | Previous Version | Text Only | Print | Product List | Glossary On
Versions: 1 2 3 4 5 6 7 8 9 10 11 12 13 14 15 16
074
FTUS45 KPIH 282339
TAFIDA
TAF
KIDA 282339Z 2900/2924 24006KT P6SM SCT040 BKN060
     FM290200 20006KT P6SM SCT040 BKN060
     FM290700 20009KT P6SM SCT020 SCT030 SCT230
     FM291500 20010KT P6SM SCT020 SCT100 BKN120
     FM291800 20010KT P6SM FEW020 SCT050 OVC070=

USA.gov is the U.S. government's official web portal to all federal, state and local government web resources and services.